Time;durP1;ratioP1;P1;durP2;ratioP2;P2;SDS_P1;SDS_P2;PMS_P1;PMS_P2;Temp;Humidity;BMP_temperature;BMP_pressure;BME280_temperature;BME280_humidity;BME280_pressure;Samples;Min_cycle;Max_cycle;Signal;HPM_P1;HPM_P2
2021/04/13 00:03:06;;;;;;;;;;;2.00;99.90;;;;;;10653898;27;19923;-92
2021/04/13 00:08:09;;;;;;;;;;;2.10;99.90;;;;;;10652235;27;19950;-92
2021/04/13 00:13:11;;;;;;;;;;;2.00;99.90;;;;;;10663763;27;19923;-91
2021/04/13 00:18:13;;;;;;;;;;;3.00;99.90;;;;;;10696092;27;19923;-92
2021/04/13 00:23:17;;;;;;;;;;;3.50;99.90;;;;;;10696050;27;19922;-92
2021/04/13 00:28:20;;;;;;;;;;;2.80;99.90;;;;;;10696053;27;19923;-92
2021/04/13 00:33:24;;;;;;;;;;;1.90;99.90;;;;;;10693566;27;19944;-92
2021/04/13 00:38:25;;;;;;;;;;;2.60;99.90;;;;;;10694621;27;19923;-92
2021/04/13 00:43:27;;;;;;;;;;;1.90;99.90;;;;;;10694817;27;19927;-92
2021/04/13 00:48:32;;;;;;;;;;;3.10;99.90;;;;;;10677883;27;19922;-92
2021/04/13 00:53:34;;;;;;;;;;;3.60;99.90;;;;;;10670977;27;19923;-92
2021/04/13 00:58:39;;;;;;;;;;;2.20;99.90;;;;;;10694260;27;20282;-92
2021/04/13 01:04:04;;;;;;;;;;;2.30;99.90;;;;;;10677624;27;19923;-91
2021/04/13 01:09:06;;;;;;;;;;;2.40;99.90;;;;;;10650699;27;19930;-92
2021/04/13 01:14:08;;;;;;;;;;;2.30;99.90;;;;;;10651378;27;19927;-92
2021/04/13 01:19:15;;;;;;;;;;;2.30;99.90;;;;;;10650675;27;20385;-92
2021/04/13 01:24:26;;;;;;;;;;;2.10;99.90;;;;;;10652037;27;20006;-92
2021/04/13 01:29:29;;;;;;;;;;;3.00;99.90;;;;;;10650852;27;19923;-92
2021/04/13 01:34:49;;;;;;;;;;;3.30;99.90;;;;;;10634520;27;19948;-92
2021/04/13 01:40:05;;;;;;;;;;;2.20;99.90;;;;;;10670552;27;19923;-91
2021/04/13 01:45:09;;;;;;;;;;;2.20;99.90;;;;;;10652310;27;19927;-92
2021/04/13 01:50:14;;;;;;;;;;;2.20;99.90;;;;;;10650384;27;19923;-92
2021/04/13 01:55:20;;;;;;;;;;;2.20;99.90;;;;;;10655647;27;20263;-93
2021/04/13 02:00:26;;;;;;;;;;;2.30;99.90;;;;;;10658596;27;19929;-92
2021/04/13 02:05:30;;;;;;;;;;;3.10;99.90;;;;;;10657994;27;19927;-92
2021/04/13 02:10:41;;;;;;;;;;;2.20;99.90;;;;;;10658610;27;19923;-94
2021/04/13 02:15:42;;;;;;;;;;;2.20;99.90;;;;;;10658298;27;19929;-94
2021/04/13 02:20:45;;;;;;;;;;;3.60;99.90;;;;;;10676137;27;20010;-93
2021/04/13 02:25:48;;;;;;;;;;;2.10;99.90;;;;;;10658107;27;20323;-93
2021/04/13 02:30:49;;;;;;;;;;;2.00;99.90;;;;;;10657797;27;19923;-93
2021/04/13 02:35:51;;;;;;;;;;;3.40;99.90;;;;;;10639892;27;19923;-92
2021/04/13 02:41:06;;;;;;;;;;;2.10;99.90;;;;;;10640186;27;19923;-93
2021/04/13 02:46:09;;;;;;;;;;;1.70;99.90;;;;;;10657191;27;19933;-92
2021/04/13 02:51:12;;;;;;;;;;;1.80;99.90;;;;;;10656432;27;19929;-93
2021/04/13 02:56:22;;;;;;;;;;;3.00;99.90;;;;;;10654545;27;19931;-92
2021/04/13 03:01:23;;;;;;;;;;;1.60;99.90;;;;;;10657197;27;19923;-92
2021/04/13 03:06:25;;;;;;;;;;;1.60;99.90;;;;;;10673394;27;19931;-92
2021/04/13 03:11:27;;;;;;;;;;;1.50;99.90;;;;;;10654842;27;19927;-91
2021/04/13 03:16:31;;;;;;;;;;;1.40;99.90;;;;;;10654907;27;20369;-92
2021/04/13 03:21:34;;;;;;;;;;;1.50;99.90;;;;;;10655318;27;19945;-91
2021/04/13 03:26:56;;;;;;;;;;;1.60;99.90;;;;;;10655056;27;19931;-92
2021/04/13 03:31:58;;;;;;;;;;;1.50;99.90;;;;;;10656080;27;20026;-92
2021/04/13 03:37:00;;;;;;;;;;;2.00;99.90;;;;;;10678768;27;20361;-91
2021/04/13 03:42:03;;;;;;;;;;;1.50;99.90;;;;;;10697136;27;19929;-91
2021/04/13 03:47:12;;;;;;;;;;;1.50;99.90;;;;;;10696040;27;20295;-92
2021/04/13 03:52:26;;;;;;;;;;;1.40;99.90;;;;;;10685735;27;19930;-92
2021/04/13 03:57:29;;;;;;;;;;;1.60;99.90;;;;;;10653876;27;19930;-92
2021/04/13 04:02:31;;;;;;;;;;;1.60;99.90;;;;;;10653335;27;20018;-91
2021/04/13 04:07:44;;;;;;;;;;;1.60;99.90;;;;;;10670722;27;19970;-91
2021/04/13 04:12:55;;;;;;;;;;;2.30;99.90;;;;;;10652378;27;19927;-91
2021/04/13 04:17:57;;;;;;;;;;;1.60;99.90;;;;;;10652699;27;19927;-92
2021/04/13 04:22:59;;;;;;;;;;;1.50;99.90;;;;;;10427531;22;20461;-89
2021/04/13 04:28:01;;;;;;;;;;;1.60;99.90;;;;;;10479681;28;19932;-89
2021/04/13 04:33:03;;;;;;;;;;;2.40;99.90;;;;;;10411348;28;20016;-89
2021/04/13 04:38:08;;;;;;;;;;;1.60;99.90;;;;;;10478751;28;20026;-89
2021/04/13 04:43:14;;;;;;;;;;;1.60;99.90;;;;;;10411295;28;19925;-89
2021/04/13 04:48:26;;;;;;;;;;;1.60;99.90;;;;;;10461872;28;19932;-89
2021/04/13 04:53:29;;;;;;;;;;;1.60;99.90;;;;;;10482663;28;19942;-90
2021/04/13 04:58:30;;;;;;;;;;;1.70;99.90;;;;;;10564824;28;19924;-90
2021/04/13 05:03:31;;;;;;;;;;;1.50;99.90;;;;;;10564923;28;19924;-90
2021/04/13 05:08:33;;;;;;;;;;;1.50;99.90;;;;;;10564634;28;19969;-89
2021/04/13 05:13:34;;;;;;;;;;;1.40;99.90;;;;;;10477294;28;20395;-90
2021/04/13 05:18:36;;;;;;;;;;;1.50;99.90;;;;;;10477762;28;20367;-89
2021/04/13 05:23:37;;;;;;;;;;;1.50;99.90;;;;;;10575524;28;19923;-90
2021/04/13 05:28:39;;;;;;;;;;;2.80;99.90;;;;;;10586113;28;19924;-90
2021/04/13 05:33:40;;;;;;;;;;;1.70;99.90;;;;;;10591541;28;19924;-89
2021/04/13 05:38:43;;;;;;;;;;;1.90;99.90;;;;;;10589771;28;20434;-90
2021/04/13 05:43:44;;;;;;;;;;;2.10;99.90;;;;;;10589773;28;20331;-90
2021/04/13 05:48:46;;;;;;;;;;;2.00;99.90;;;;;;10572779;28;19924;-90
2021/04/13 05:53:47;;;;;;;;;;;2.50;99.90;;;;;;10572384;28;20023;-89
2021/04/13 05:58:49;;;;;;;;;;;2.40;99.90;;;;;;10571190;28;19934;-91
2021/04/13 06:03:51;;;;;;;;;;;2.80;99.90;;;;;;10580576;28;20398;-90
2021/04/13 06:08:52;;;;;;;;;;;3.10;99.90;;;;;;10546048;28;19947;-90
2021/04/13 06:13:55;;;;;;;;;;;3.70;99.90;;;;;;10547043;28;19924;-90
2021/04/13 06:18:56;;;;;;;;;;;3.70;99.90;;;;;;10548920;28;20011;-90
2021/04/13 06:23:58;;;;;;;;;;;3.80;99.90;;;;;;10589221;28;19927;-92
2021/04/13 06:28:59;;;;;;;;;;;4.60;99.90;;;;;;10572027;28;19927;-92
2021/04/13 06:34:00;;;;;;;;;;;5.20;99.90;;;;;;10555239;28;20362;-92
2021/04/13 06:39:02;;;;;;;;;;;7.80;99.90;;;;;;10554218;28;19924;-92
2021/04/13 06:44:09;;;;;;;;;;;8.30;99.90;;;;;;10571779;28;20293;-93
2021/04/13 06:49:29;;;;;;;;;;;10.70;99.40;;;;;;10571684;28;19924;-93
2021/04/13 06:54:36;;;;;;;;;;;9.30;99.90;;;;;;10571230;28;19930;-91
2021/04/13 06:59:47;;;;;;;;;;;9.10;99.90;;;;;;10570720;28;19963;-93
2021/04/13 07:05:01;;;;;;;;;;;11.30;94.50;;;;;;10570965;28;19934;-93
2021/04/13 07:10:11;;;;;;;;;;;9.70;96.50;;;;;;10570478;28;19950;-92
2021/04/13 07:15:18;;;;;;;;;;;9.20;99.50;;;;;;10570087;28;20302;-91
2021/04/13 07:20:24;;;;;;;;;;;10.00;98.30;;;;;;10522462;28;20371;-92
2021/04/13 07:25:29;;;;;;;;;;;9.40;97.70;;;;;;10471232;28;19986;-92
2021/04/13 07:30:34;;;;;;;;;;;9.80;97.10;;;;;;10440089;28;19968;-91
2021/04/13 07:35:37;;;;;;;;;;;9.80;95.90;;;;;;10475889;28;19925;-91
2021/04/13 07:40:39;;;;;;;;;;;10.00;97.60;;;;;;10481535;28;19929;-91
2021/04/13 07:45:43;;;;;;;;;;;10.50;97.60;;;;;;10457110;28;19925;-92
2021/04/13 07:51:03;;;;;;;;;;;10.80;95.80;;;;;;10480092;28;19932;-91
2021/04/13 07:56:09;;;;;;;;;;;11.00;95.90;;;;;;10498052;27;19991;-90
2021/04/13 08:01:10;;;;;;;;;;;11.00;95.10;;;;;;10481059;28;20011;-91
2021/04/13 08:06:26;;;;;;;;;;;10.90;94.90;;;;;;10463052;28;19932;-92
2021/04/13 08:11:28;;;;;;;;;;;11.30;94.40;;;;;;10412142;28;19984;-91
2021/04/13 08:16:49;;;;;;;;;;;11.30;95.30;;;;;;10468765;28;19925;-92
2021/04/13 08:22:10;;;;;;;;;;;12.40;91.90;;;;;;10479900;28;20011;-91
2021/04/13 08:27:20;;;;;;;;;;;12.20;91.90;;;;;;10479104;28;20023;-92
2021/04/13 08:38:12;;;;;;;;;;;11.10;93.70;;;;;;10404497;28;20283;-91
2021/04/13 08:43:34;;;;;;;;;;;11.90;92.00;;;;;;10431458;28;19926;-96
2021/04/13 08:48:43;;;;;;;;;;;13.00;86.80;;;;;;10437457;28;19938;-91
2021/04/13 08:54:02;;;;;;;;;;;11.50;90.40;;;;;;10465946;28;19929;-90
2021/04/13 08:59:06;;;;;;;;;;;9.90;90.40;;;;;;10570459;28;19930;-91
2021/04/13 09:04:28;;;;;;;;;;;11.90;85.40;;;;;;10564821;28;19931;-91
2021/04/13 09:09:31;;;;;;;;;;;12.90;79.80;;;;;;10513626;28;19925;-89
2021/04/13 09:14:35;;;;;;;;;;;12.70;74.80;;;;;;10439094;28;19971;-89
2021/04/13 09:19:57;;;;;;;;;;;12.90;76.70;;;;;;10436543;28;19926;-89
2021/04/13 09:25:11;;;;;;;;;;;13.30;70.60;;;;;;10435186;28;20368;-89
2021/04/13 09:30:24;;;;;;;;;;;13.70;68.10;;;;;;10388291;28;19925;-89
2021/04/13 09:35:44;;;;;;;;;;;12.70;66.00;;;;;;10408614;28;19968;-89
2021/04/13 09:40:51;;;;;;;;;;;13.10;66.20;;;;;;10473499;28;19929;-89
2021/04/13 09:46:00;;;;;;;;;;;14.30;70.00;;;;;;10474562;28;20020;-89
2021/04/13 09:51:21;;;;;;;;;;;12.80;64.00;;;;;;10475254;28;19947;-89
2021/04/13 09:56:23;;;;;;;;;;;11.00;62.10;;;;;;10412075;28;19931;-89
2021/04/13 10:01:43;;;;;;;;;;;13.20;66.70;;;;;;10476654;28;19925;-89
2021/04/13 10:07:10;;;;;;;;;;;12.50;61.70;;;;;;10471866;28;19925;-88
2021/04/13 10:12:15;;;;;;;;;;;13.30;59.30;;;;;;10469175;27;20418;-88
2021/04/13 10:17:35;;;;;;;;;;;13.50;59.10;;;;;;10394564;28;19929;-88
2021/04/13 10:22:49;;;;;;;;;;;13.60;63.50;;;;;;10480708;23;19973;-86
2021/04/13 10:28:09;;;;;;;;;;;15.20;60.80;;;;;;10496034;28;19925;-86
2021/04/13 10:33:13;;;;;;;;;;;14.90;59.10;;;;;;10495876;28;19924;-87
2021/04/13 10:38:24;;;;;;;;;;;13.30;51.60;;;;;;10479497;28;19930;-87
2021/04/13 10:43:47;;;;;;;;;;;14.20;55.70;;;;;;10477943;28;20487;-86
2021/04/13 10:48:54;;;;;;;;;;;14.10;57.90;;;;;;10479243;28;19933;-86
2021/04/13 10:54:04;;;;;;;;;;;14.60;54.70;;;;;;10455408;28;19925;-86
2021/04/13 10:59:18;;;;;;;;;;;13.80;55.90;;;;;;10437567;28;19925;-85
2021/04/13 11:04:26;;;;;;;;;;;14.40;51.20;;;;;;10454464;28;19982;-85
2021/04/13 11:09:36;;;;;;;;;;;13.10;53.60;;;;;;10570665;27;19925;-85
2021/04/13 11:14:44;;;;;;;;;;;12.40;58.90;;;;;;10478736;28;19936;-86
2021/04/13 11:20:06;;;;;;;;;;;13.90;57.90;;;;;;10513787;27;20006;-86
2021/04/13 11:25:14;;;;;;;;;;;14.20;54.30;;;;;;10436644;28;19931;-85
2021/04/13 11:30:35;;;;;;;;;;;14.00;53.00;;;;;;10453673;28;19925;-85
2021/04/13 11:35:37;;;;;;;;;;;14.50;51.70;;;;;;10453660;28;20713;-85
2021/04/13 11:40:38;;;;;;;;;;;13.20;53.90;;;;;;10446578;28;19947;-85
2021/04/13 11:45:58;;;;;;;;;;;12.70;53.30;;;;;;10476857;28;20294;-85
2021/04/13 11:50:59;;;;;;;;;;;12.10;54.70;;;;;;10471207;28;19932;-85
2021/04/13 11:56:02;;;;;;;;;;;13.60;52.60;;;;;;10473876;27;19925;-85
2021/04/13 12:01:12;;;;;;;;;;;11.50;54.30;;;;;;10475766;27;20301;-85
2021/04/13 12:06:14;;;;;;;;;;;11.00;53.70;;;;;;10476808;28;19925;-85
2021/04/13 12:11:35;;;;;;;;;;;11.70;55.60;;;;;;10494104;28;19931;-85
2021/04/13 12:16:46;;;;;;;;;;;12.00;53.10;;;;;;10493385;28;19924;-85
2021/04/13 12:21:48;;;;;;;;;;;11.50;55.00;;;;;;10464146;27;19983;-85
2021/04/13 12:26:50;;;;;;;;;;;11.20;54.90;;;;;;10618019;27;19973;-85
2021/04/13 12:32:10;;;;;;;;;;;10.70;59.30;;;;;;10516572;28;20398;-85
2021/04/13 12:37:30;;;;;;;;;;;10.40;56.90;;;;;;10479860;28;19924;-85
2021/04/13 12:42:38;;;;;;;;;;;10.70;54.30;;;;;;10488073;27;19932;-85
2021/04/13 12:47:39;;;;;;;;;;;10.80;56.20;;;;;;10451631;28;20335;-85
2021/04/13 12:52:45;;;;;;;;;;;10.80;55.20;;;;;;10474418;28;19931;-85
2021/04/13 12:58:08;;;;;;;;;;;11.30;56.10;;;;;;10492237;28;19924;-85
2021/04/13 13:03:12;;;;;;;;;;;11.30;55.30;;;;;;10493349;28;19929;-85
2021/04/13 13:08:34;;;;;;;;;;;12.00;55.00;;;;;;10645977;27;19928;-85
2021/04/13 13:13:37;;;;;;;;;;;12.30;49.90;;;;;;10451422;28;19925;-85
2021/04/13 13:18:42;;;;;;;;;;;12.20;48.60;;;;;;10491374;28;20398;-85
2021/04/13 13:23:48;;;;;;;;;;;11.30;50.70;;;;;;10473608;28;20564;-85
2021/04/13 13:28:50;;;;;;;;;;;12.30;52.40;;;;;;10489960;28;19928;-85
2021/04/13 13:33:53;;;;;;;;;;;12.70;51.90;;;;;;10462380;28;19940;-85
2021/04/13 13:38:55;;;;;;;;;;;13.40;49.70;;;;;;10473733;28;19925;-85
2021/04/13 13:43:56;;;;;;;;;;;12.70;49.40;;;;;;10464438;27;20007;-85
2021/04/13 13:49:15;;;;;;;;;;;12.20;49.90;;;;;;10474195;28;19933;-84
2021/04/13 13:54:25;;;;;;;;;;;11.80;54.50;;;;;;10480656;28;19931;-85
2021/04/13 13:59:28;;;;;;;;;;;12.10;54.20;;;;;;10497378;28;20379;-84
2021/04/13 14:04:32;;;;;;;;;;;11.70;53.40;;;;;;10498373;28;20021;-84
2021/04/13 14:09:34;;;;;;;;;;;11.30;55.50;;;;;;10479847;28;19930;-84
2021/04/13 14:14:36;;;;;;;;;;;12.20;56.70;;;;;;10480176;28;20268;-84
2021/04/13 14:19:38;;;;;;;;;;;11.30;57.50;;;;;;10478265;28;20469;-84
2021/04/13 14:24:41;;;;;;;;;;;12.00;54.00;;;;;;10477394;28;20401;-84
2021/04/13 14:29:44;;;;;;;;;;;11.60;55.70;;;;;;10475044;28;19935;-84
2021/04/13 14:34:45;;;;;;;;;;;12.40;51.70;;;;;;10477686;28;19931;-84
2021/04/13 14:40:00;;;;;;;;;;;11.90;48.50;;;;;;10496885;28;19968;-84
2021/04/13 14:45:22;;;;;;;;;;;12.20;48.70;;;;;;10455056;27;19932;-84
2021/04/13 14:50:29;;;;;;;;;;;12.30;48.20;;;;;;10460671;28;20367;-84
2021/04/13 14:55:31;;;;;;;;;;;12.40;46.60;;;;;;10454337;28;20026;-84
2021/04/13 15:00:34;;;;;;;;;;;12.60;48.80;;;;;;10485748;28;20409;-84
2021/04/13 15:05:37;;;;;;;;;;;12.80;48.30;;;;;;10474797;27;20016;-84
2021/04/13 15:10:39;;;;;;;;;;;12.50;50.10;;;;;;10494484;28;19935;-83
2021/04/13 15:15:40;;;;;;;;;;;12.10;49.50;;;;;;10457610;27;19924;-83
2021/04/13 15:20:42;;;;;;;;;;;12.10;50.30;;;;;;10461857;28;19938;-84
2021/04/13 15:25:43;;;;;;;;;;;11.60;53.70;;;;;;10453361;27;19931;-83
2021/04/13 15:30:47;;;;;;;;;;;11.00;53.80;;;;;;10534781;28;19931;-83
2021/04/13 15:35:54;;;;;;;;;;;10.30;54.90;;;;;;10506912;28;19925;-84
2021/04/13 15:41:01;;;;;;;;;;;10.50;56.20;;;;;;10495171;28;19963;-83
2021/04/13 15:46:05;;;;;;;;;;;10.50;55.50;;;;;;10477480;28;19931;-84
2021/04/13 15:51:07;;;;;;;;;;;10.30;53.60;;;;;;10493864;28;20579;-84
2021/04/13 15:56:08;;;;;;;;;;;10.30;55.10;;;;;;10460942;28;19924;-83
2021/04/13 16:01:09;;;;;;;;;;;10.10;55.60;;;;;;10493578;28;20739;-83
2021/04/13 16:06:11;;;;;;;;;;;11.90;58.80;;;;;;10494417;28;19924;-83
2021/04/13 16:11:13;;;;;;;;;;;9.90;57.60;;;;;;10561758;27;20364;-83
2021/04/13 16:16:14;;;;;;;;;;;9.60;59.10;;;;;;10706022;27;19933;-84
2021/04/13 16:21:20;;;;;;;;;;;9.60;59.10;;;;;;10431959;28;21342;-84
2021/04/13 16:26:26;;;;;;;;;;;9.30;58.50;;;;;;10493717;28;19973;-84
2021/04/13 16:31:36;;;;;;;;;;;9.30;61.20;;;;;;10475735;28;19925;-84
2021/04/13 16:36:46;;;;;;;;;;;9.20;62.40;;;;;;10543359;23;19928;-84
2021/04/13 16:41:49;;;;;;;;;;;9.30;61.80;;;;;;10609131;27;19929;-84
2021/04/13 16:46:51;;;;;;;;;;;9.20;62.10;;;;;;10657911;27;19927;-84
2021/04/13 16:51:58;;;;;;;;;;;9.30;64.50;;;;;;10625002;27;19930;-84
2021/04/13 16:56:59;;;;;;;;;;;10.30;60.20;;;;;;10625368;27;20022;-84
2021/04/13 17:02:08;;;;;;;;;;;9.20;60.40;;;;;;10620304;27;19934;-84
2021/04/13 17:07:33;;;;;;;;;;;9.00;61.30;;;;;;10623383;27;20370;-84
2021/04/13 17:12:44;;;;;;;;;;;8.80;61.40;;;;;;10615041;27;19930;-84
2021/04/13 17:17:51;;;;;;;;;;;8.60;62.20;;;;;;10624109;28;19931;-84
2021/04/13 17:22:53;;;;;;;;;;;8.40;64.90;;;;;;10626635;27;19927;-84
2021/04/13 17:27:58;;;;;;;;;;;8.40;65.70;;;;;;10632591;27;20014;-85
2021/04/13 17:33:01;;;;;;;;;;;8.40;68.70;;;;;;10613550;27;19931;-84
2021/04/13 17:38:10;;;;;;;;;;;8.40;70.70;;;;;;10633317;27;20319;-84
2021/04/13 17:43:24;;;;;;;;;;;8.30;73.70;;;;;;10625421;27;19931;-84
2021/04/13 17:48:27;;;;;;;;;;;8.00;78.20;;;;;;10629018;27;19957;-85
2021/04/13 17:53:35;;;;;;;;;;;7.90;81.40;;;;;;10631703;27;19923;-85
2021/04/13 17:58:36;;;;;;;;;;;7.80;83.40;;;;;;10631437;27;20014;-84
2021/04/13 18:03:43;;;;;;;;;;;7.50;84.30;;;;;;10631829;27;20014;-85
2021/04/13 18:09:05;;;;;;;;;;;7.60;86.80;;;;;;10631930;27;19923;-85
2021/04/13 18:14:08;;;;;;;;;;;7.60;90.00;;;;;;10619378;27;19923;-85
2021/04/13 18:19:14;;;;;;;;;;;7.30;88.10;;;;;;10630991;27;20785;-84
2021/04/13 18:24:18;;;;;;;;;;;8.10;88.70;;;;;;10631825;27;19923;-85
2021/04/13 18:29:21;;;;;;;;;;;6.90;89.00;;;;;;10630192;27;19931;-84
2021/04/13 18:34:32;;;;;;;;;;;6.90;86.00;;;;;;10629794;27;19953;-85
2021/04/13 18:39:36;;;;;;;;;;;6.80;88.70;;;;;;10626178;27;19967;-84
2021/04/13 18:44:46;;;;;;;;;;;6.70;89.90;;;;;;10634987;27;20001;-84
2021/04/13 18:49:52;;;;;;;;;;;6.40;92.20;;;;;;10626239;27;20022;-85
2021/04/13 18:55:12;;;;;;;;;;;7.40;92.70;;;;;;10630692;27;19931;-85
2021/04/13 19:00:14;;;;;;;;;;;5.90;95.30;;;;;;10624325;27;20624;-85
2021/04/13 19:05:18;;;;;;;;;;;5.60;95.50;;;;;;10623902;27;20010;-85
2021/04/13 19:10:23;;;;;;;;;;;5.50;96.40;;;;;;10622456;27;19927;-85
2021/04/13 19:15:30;;;;;;;;;;;7.10;97.60;;;;;;10629012;27;20255;-86
2021/04/13 19:20:34;;;;;;;;;;;5.90;97.90;;;;;;10623409;27;19976;-85
2021/04/13 19:25:41;;;;;;;;;;;5.00;98.10;;;;;;10623204;27;19937;-85
2021/04/13 19:30:44;;;;;;;;;;;4.90;99.20;;;;;;10623709;27;19930;-85
2021/04/13 19:35:52;;;;;;;;;;;6.20;99.80;;;;;;10657889;27;19924;-85
2021/04/13 19:40:56;;;;;;;;;;;4.70;99.30;;;;;;10625594;27;19962;-85
2021/04/13 19:46:00;;;;;;;;;;;4.90;99.90;;;;;;10626477;27;20374;-85
2021/04/13 19:51:21;;;;;;;;;;;4.70;99.70;;;;;;10625598;27;19923;-85
2021/04/13 19:56:24;;;;;;;;;;;4.70;99.90;;;;;;10626052;27;19981;-85
2021/04/13 20:01:28;;;;;;;;;;;4.60;99.90;;;;;;10626922;27;19963;-85
2021/04/13 20:06:32;;;;;;;;;;;4.50;99.90;;;;;;10637772;27;19924;-85
2021/04/13 20:11:41;;;;;;;;;;;4.40;99.90;;;;;;10625931;27;19929;-85
2021/04/13 20:16:49;;;;;;;;;;;4.10;99.90;;;;;;10626448;27;19984;-85
2021/04/13 20:21:52;;;;;;;;;;;4.00;99.90;;;;;;10625245;27;19927;-86
2021/04/13 20:26:55;;;;;;;;;;;3.70;99.90;;;;;;10626646;27;19923;-86
2021/04/13 20:31:57;;;;;;;;;;;5.20;99.90;;;;;;10612932;27;20373;-86
2021/04/13 20:42:25;;;;;;;;;;;3.50;99.90;;;;;;10615211;27;20567;-86
2021/04/13 20:47:34;;;;;;;;;;;3.50;99.90;;;;;;10622628;27;20235;-86
2021/04/13 20:52:53;;;;;;;;;;;4.60;99.90;;;;;;10625017;27;20006;-86
2021/04/13 20:58:03;;;;;;;;;;;3.20;99.90;;;;;;10623459;27;19931;-85
2021/04/13 21:03:11;;;;;;;;;;;3.00;99.90;;;;;;10625617;27;19930;-85
2021/04/13 21:08:33;;;;;;;;;;;2.90;99.90;;;;;;10606244;27;19924;-86
2021/04/13 21:13:35;;;;;;;;;;;2.80;99.90;;;;;;10577176;28;19934;-86
2021/04/13 21:18:39;;;;;;;;;;;2.70;99.90;;;;;;10578008;28;19927;-85
2021/04/13 21:23:46;;;;;;;;;;;2.70;99.90;;;;;;10577059;28;20018;-86
2021/04/13 21:28:50;;;;;;;;;;;2.70;99.90;;;;;;10579674;28;19924;-86
2021/04/13 21:33:59;;;;;;;;;;;2.60;99.90;;;;;;10575699;28;19928;-86
2021/04/13 21:39:04;;;;;;;;;;;2.60;99.90;;;;;;10575181;28;19931;-86
2021/04/13 21:44:09;;;;;;;;;;;2.50;99.90;;;;;;10581071;28;19923;-85
2021/04/13 21:49:13;;;;;;;;;;;3.40;99.90;;;;;;10581991;28;19930;-86
2021/04/13 21:54:37;;;;;;;;;;;2.20;99.90;;;;;;10617876;27;20324;-86
2021/04/13 21:59:58;;;;;;;;;;;2.40;99.90;;;;;;10615480;28;20018;-86
2021/04/13 22:05:02;;;;;;;;;;;2.20;99.90;;;;;;10622244;28;20609;-86
2021/04/13 22:10:19;;;;;;;;;;;2.30;99.90;;;;;;10594619;27;20285;-86
2021/04/13 22:15:22;;;;;;;;;;;2.20;99.90;;;;;;10588995;28;19927;-86
2021/04/13 22:20:35;;;;;;;;;;;2.00;99.90;;;;;;10589322;28;19931;-86
2021/04/13 22:25:36;;;;;;;;;;;2.10;99.90;;;;;;10588106;28;19924;-86
2021/04/13 22:30:47;;;;;;;;;;;1.90;99.90;;;;;;10604368;27;19946;-86
2021/04/13 22:35:53;;;;;;;;;;;2.00;99.90;;;;;;10586363;28;20271;-86
2021/04/13 22:40:55;;;;;;;;;;;1.90;99.90;;;;;;10588006;28;19924;-87
2021/04/13 22:45:56;;;;;;;;;;;1.90;99.90;;;;;;10591620;27;19923;-86
2021/04/13 22:50:57;;;;;;;;;;;1.90;99.90;;;;;;10532919;22;19924;-86
2021/04/13 22:56:02;;;;;;;;;;;1.90;99.90;;;;;;10456022;28;19932;-86
2021/04/13 23:01:04;;;;;;;;;;;2.00;99.90;;;;;;10454543;28;19925;-86
2021/04/13 23:06:06;;;;;;;;;;;1.80;99.90;;;;;;10448255;28;19930;-86
2021/04/13 23:11:08;;;;;;;;;;;2.50;99.90;;;;;;10413350;28;19933;-87
2021/04/13 23:16:09;;;;;;;;;;;3.40;99.90;;;;;;10412391;28;19929;-87
2021/04/13 23:21:10;;;;;;;;;;;1.60;99.90;;;;;;10411821;28;19926;-85
2021/04/13 23:26:11;;;;;;;;;;;1.70;99.90;;;;;;10413805;28;19929;-87
2021/04/13 23:31:16;;;;;;;;;;;1.60;99.90;;;;;;10434605;28;20023;-87
2021/04/13 23:36:17;;;;;;;;;;;1.80;99.90;;;;;;10427653;28;19931;-87
2021/04/13 23:41:19;;;;;;;;;;;1.60;99.90;;;;;;10427697;28;19925;-87
2021/04/13 23:46:20;;;;;;;;;;;1.40;99.90;;;;;;10412511;28;20376;-87
2021/04/13 23:51:22;;;;;;;;;;;1.40;99.90;;;;;;10394828;28;19936;-87
2021/04/13 23:56:23;;;;;;;;;;;1.40;99.90;;;;;;10396459;28;19932;-87
